createdAt,value
2019-05-19T00:00:14.209Z,16.70
2019-05-19T00:05:20.750Z,16.40
2019-05-19T00:10:26.857Z,16.60
2019-05-19T00:15:33.328Z,16.50
2019-05-19T00:20:39.439Z,16.30
2019-05-19T00:25:45.506Z,16.20
2019-05-19T00:30:51.555Z,16.20
2019-05-19T00:36:01.870Z,16.20
2019-05-19T00:41:07.995Z,16.20
2019-05-19T00:46:15.208Z,16.00
2019-05-19T00:51:22.025Z,16.00
2019-05-19T00:56:28.565Z,16.00
2019-05-19T01:01:34.573Z,16.00
2019-05-19T01:06:40.803Z,16.00
2019-05-19T01:11:46.888Z,16.00
2019-05-19T01:16:53.032Z,16.10
2019-05-19T01:22:01.318Z,15.90
2019-05-19T01:27:07.456Z,16.00
2019-05-19T01:32:13.636Z,16.00
2019-05-19T01:37:19.972Z,16.00
2019-05-19T01:42:26.292Z,15.90
2019-05-19T01:47:32.572Z,15.70
2019-05-19T01:52:38.739Z,15.70
2019-05-19T01:57:44.845Z,15.80
2019-05-19T02:02:51.117Z,15.80
2019-05-19T02:07:57.446Z,15.70
2019-05-19T02:13:05.240Z,15.60
2019-05-19T02:18:12.360Z,15.50
2019-05-19T02:23:18.473Z,15.70
2019-05-19T02:28:24.644Z,15.70
2019-05-19T02:33:31.994Z,15.70
2019-05-19T02:38:39.797Z,15.60
2019-05-19T02:43:46.878Z,15.60
2019-05-19T02:48:54.315Z,15.50
2019-05-19T02:54:02.300Z,15.40
2019-05-19T02:59:08.936Z,15.40
2019-05-19T03:04:14.950Z,15.40
2019-05-19T03:09:21.140Z,15.10
2019-05-19T03:14:27.289Z,15.30
2019-05-19T03:19:33.536Z,15.30
2019-05-19T03:24:39.759Z,15.30
2019-05-19T03:29:51.006Z,15.30
2019-05-19T03:34:57.446Z,15.20
2019-05-19T03:40:06.135Z,15.20
2019-05-19T03:45:12.244Z,15.00
2019-05-19T03:50:18.505Z,15.00
2019-05-19T03:55:24.664Z,15.00
2019-05-19T04:00:30.916Z,14.90
2019-05-19T04:05:37.179Z,14.90
2019-05-19T04:10:43.428Z,14.90
2019-05-19T04:15:49.608Z,14.90
2019-05-19T04:20:56.044Z,14.90
2019-05-19T04:26:02.210Z,14.80
2019-05-19T04:31:08.406Z,14.80
2019-05-19T04:36:14.638Z,14.80
2019-05-19T04:41:20.909Z,14.90
2019-05-19T04:46:27.164Z,14.90
2019-05-19T04:51:33.371Z,14.90
2019-05-19T04:56:39.505Z,14.90
2019-05-19T05:01:45.610Z,14.90
2019-05-19T05:06:51.818Z,15.00
2019-05-19T05:11:57.916Z,15.00
2019-05-19T05:17:04.244Z,15.00
2019-05-19T05:22:21.839Z,15.10
2019-05-19T05:27:18.233Z,15.20
2019-05-19T05:32:24.740Z,15.20
2019-05-19T05:37:30.972Z,15.30
2019-05-19T05:42:37.280Z,15.50
2019-05-19T05:47:43.479Z,15.60
2019-05-19T05:52:50.016Z,15.70
2019-05-19T05:57:56.171Z,15.80
2019-05-19T06:03:02.429Z,15.80
2019-05-19T06:08:08.662Z,16.00
2019-05-19T06:13:14.944Z,16.20
2019-05-19T06:18:21.127Z,16.50
2019-05-19T06:23:27.621Z,16.60
2019-05-19T06:28:33.721Z,16.60
2019-05-19T06:33:40.137Z,16.80
2019-05-19T06:38:46.403Z,16.90
2019-05-19T06:43:52.564Z,17.00
2019-05-19T06:48:58.673Z,17.10
2019-05-19T06:54:05.110Z,17.30
2019-05-19T06:59:12.013Z,17.50
2019-05-19T07:04:19.248Z,17.70
2019-05-19T07:09:25.639Z,18.00
2019-05-19T07:14:32.088Z,18.20
2019-05-19T07:19:38.327Z,18.50
2019-05-19T07:24:44.650Z,18.60
2019-05-19T07:29:51.269Z,19.00
2019-05-19T07:34:57.547Z,18.90
2019-05-19T07:40:03.989Z,19.00
2019-05-19T07:45:10.626Z,19.20
2019-05-19T07:50:16.920Z,19.10
2019-05-19T07:55:23.034Z,19.30
2019-05-19T08:00:29.409Z,19.30
2019-05-19T08:05:35.785Z,19.70
2019-05-19T08:10:42.454Z,19.50
2019-05-19T08:15:48.828Z,19.60
2019-05-19T08:20:55.030Z,19.70
2019-05-19T08:26:01.429Z,19.90
2019-05-19T08:31:07.594Z,20.20
2019-05-19T08:36:14.006Z,20.50
2019-05-19T08:41:20.234Z,21.10
2019-05-19T08:46:26.510Z,20.90
2019-05-19T08:51:32.718Z,20.80
2019-05-19T08:56:38.880Z,21.00
2019-05-19T09:01:45.137Z,21.20
2019-05-19T09:06:51.386Z,21.30
2019-05-19T09:11:57.578Z,20.60
2019-05-19T09:17:03.912Z,20.50
2019-05-19T09:22:10.564Z,20.90
2019-05-19T09:27:16.947Z,20.80
2019-05-19T09:32:23.302Z,20.60
2019-05-19T09:37:30.635Z,20.80
2019-05-19T09:42:36.977Z,20.90
2019-05-19T09:47:43.746Z,21.10
2019-05-19T09:52:50.158Z,21.00
2019-05-19T09:57:56.420Z,21.20
2019-05-19T10:03:02.820Z,21.30
2019-05-19T10:08:09.048Z,21.50
2019-05-19T10:13:15.319Z,21.60
2019-05-19T10:18:22.724Z,21.80
2019-05-19T10:23:28.929Z,22.00
2019-05-19T10:28:35.073Z,22.00
2019-05-19T10:33:41.198Z,22.10
2019-05-19T10:38:47.280Z,22.00
2019-05-19T10:44:00.773Z,22.40
2019-05-19T10:49:07.190Z,22.80
2019-05-19T10:54:13.436Z,22.60
2019-05-19T10:59:19.703Z,23.40
2019-05-19T11:04:25.978Z,24.20
2019-05-19T11:09:32.341Z,24.80
2019-05-19T11:14:57.794Z,25.00
2019-05-19T11:20:04.436Z,25.30
2019-05-19T11:25:10.908Z,25.10
2019-05-19T11:30:17.217Z,24.10
2019-05-19T11:35:23.379Z,24.50
2019-05-19T11:40:29.641Z,24.50
2019-05-19T11:45:36.249Z,24.90
2019-05-19T11:50:42.542Z,25.00
2019-05-19T11:55:49.831Z,24.60
2019-05-19T12:00:56.099Z,24.50
2019-05-19T12:06:02.332Z,24.50
2019-05-19T12:11:08.721Z,25.00
2019-05-19T12:16:15.060Z,25.30
2019-05-19T12:21:21.422Z,25.30
2019-05-19T12:26:27.833Z,25.40
2019-05-19T12:31:34.175Z,25.60
2019-05-19T12:36:40.333Z,26.20
2019-05-19T12:41:46.572Z,26.60
2019-05-19T12:46:52.877Z,26.40
2019-05-19T12:51:59.790Z,26.20
2019-05-19T12:57:09.386Z,26.00
2019-05-19T13:02:15.969Z,25.90
2019-05-19T13:07:22.260Z,25.30
2019-05-19T13:12:28.944Z,25.20
2019-05-19T13:18:01.598Z,25.50
2019-05-19T13:23:07.997Z,26.10
2019-05-19T13:28:14.187Z,26.20
2019-05-19T13:33:20.528Z,26.20
2019-05-19T13:38:26.745Z,26.00
2019-05-19T13:43:32.977Z,25.80
2019-05-19T13:48:40.124Z,26.00
2019-05-19T13:53:46.403Z,25.60
2019-05-19T13:58:52.986Z,25.10
2019-05-19T14:03:59.293Z,24.90
2019-05-19T14:09:06.737Z,24.90
2019-05-19T14:14:13.313Z,25.30
2019-05-19T14:19:19.486Z,25.60
2019-05-19T14:24:25.659Z,25.90
2019-05-19T14:29:31.794Z,25.70
2019-05-19T14:34:38.177Z,26.30
2019-05-19T14:39:44.372Z,26.40
2019-05-19T14:44:50.669Z,26.10
2019-05-19T14:49:56.785Z,25.70
2019-05-19T14:55:03.290Z,25.40
2019-05-19T15:00:11.374Z,25.70
2019-05-19T15:05:17.644Z,25.30
2019-05-19T15:10:23.738Z,25.50
2019-05-19T15:15:30.091Z,25.20
2019-05-19T15:20:36.396Z,24.80
2019-05-19T15:25:42.624Z,24.70
2019-05-19T15:30:48.724Z,24.50
2019-05-19T15:35:54.868Z,24.60
2019-05-19T15:41:01.098Z,24.40
2019-05-19T15:46:07.617Z,24.20
2019-05-19T15:51:13.952Z,21.30
2019-05-19T15:56:20.140Z,20.70
2019-05-19T16:01:26.627Z,20.80
2019-05-19T16:06:32.875Z,20.60
2019-05-19T16:11:39.476Z,20.20
2019-05-19T16:16:45.768Z,19.70
2019-05-19T16:21:52.081Z,19.20
2019-05-19T16:26:58.501Z,19.20
2019-05-19T16:32:05.574Z,18.70
2019-05-19T16:37:11.889Z,18.30
2019-05-19T16:42:18.108Z,18.30
2019-05-19T16:47:24.303Z,18.50
2019-05-19T16:52:30.435Z,18.40
2019-05-19T16:57:36.825Z,17.90
2019-05-19T17:02:43.101Z,17.50
2019-05-19T17:07:49.463Z,17.60
2019-05-19T17:12:55.879Z,17.80
2019-05-19T17:18:02.150Z,17.40
2019-05-19T17:23:08.566Z,17.20
2019-05-19T17:28:15.073Z,17.40
2019-05-19T17:33:24.476Z,17.20
2019-05-19T17:38:30.810Z,17.40
2019-05-19T17:43:37.231Z,17.40
2019-05-19T17:48:43.453Z,17.10
2019-05-19T17:53:49.901Z,17.40
2019-05-19T17:58:56.720Z,17.40
2019-05-19T18:04:05.947Z,17.40
2019-05-19T18:09:12.135Z,17.50
2019-05-19T18:14:18.881Z,17.50
2019-05-19T18:19:25.429Z,17.40
2019-05-19T18:24:31.734Z,17.40
2019-05-19T18:29:38.109Z,17.30
2019-05-19T18:34:44.575Z,17.30
2019-05-19T18:39:50.865Z,17.20
2019-05-19T18:44:57.193Z,17.40
2019-05-19T18:50:03.459Z,17.40
2019-05-19T18:55:10.449Z,17.50
2019-05-19T19:00:31.844Z,17.50
2019-05-19T19:05:38.221Z,17.50
2019-05-19T19:10:44.675Z,17.20
2019-05-19T19:15:50.941Z,17.10
2019-05-19T19:20:57.400Z,17.10
2019-05-19T19:26:03.532Z,17.00
2019-05-19T19:31:09.826Z,17.10
2019-05-19T19:36:15.928Z,17.00
2019-05-19T19:41:22.290Z,17.00
2019-05-19T19:46:28.477Z,16.80
2019-05-19T19:51:34.565Z,16.90
2019-05-19T19:56:40.827Z,16.90
2019-05-19T20:01:47.183Z,16.90
2019-05-19T20:06:53.311Z,17.00
2019-05-19T20:11:59.876Z,17.10
2019-05-19T20:17:05.905Z,17.00
2019-05-19T20:22:13.821Z,17.00
2019-05-19T20:27:21.069Z,17.00
2019-05-19T20:32:27.263Z,16.90
2019-05-19T20:37:33.543Z,16.90
2019-05-19T20:42:41.526Z,16.70
2019-05-19T20:47:48.216Z,16.70
2019-05-19T20:52:54.544Z,16.50
2019-05-19T20:58:00.652Z,16.50
2019-05-19T21:03:06.847Z,16.60
2019-05-19T21:08:12.945Z,16.60
2019-05-19T21:13:19.076Z,16.50
2019-05-19T21:18:25.384Z,16.60
2019-05-19T21:23:31.667Z,16.40
2019-05-19T21:28:37.860Z,16.40
2019-05-19T21:33:44.211Z,16.30
2019-05-19T21:38:50.481Z,16.30
2019-05-19T21:43:56.804Z,16.20
2019-05-19T21:49:02.969Z,16.10
2019-05-19T21:54:09.183Z,16.00
2019-05-19T21:59:15.347Z,16.00
2019-05-19T22:04:21.717Z,16.00
2019-05-19T22:09:27.855Z,15.50
2019-05-19T22:14:34.015Z,15.70
2019-05-19T22:19:40.359Z,15.60
2019-05-19T22:24:46.724Z,15.30
2019-05-19T22:29:52.919Z,15.10
2019-05-19T22:34:59.010Z,14.60
2019-05-19T22:40:05.509Z,14.90
2019-05-19T22:45:12.569Z,15.20
2019-05-19T22:50:18.880Z,14.80
2019-05-19T22:55:25.256Z,14.90
2019-05-19T23:00:31.459Z,14.90
2019-05-19T23:05:37.721Z,14.80
2019-05-19T23:10:44.074Z,15.00
2019-05-19T23:15:50.233Z,14.90
2019-05-19T23:20:56.340Z,14.80
2019-05-19T23:26:02.644Z,14.80
2019-05-19T23:31:08.943Z,14.80
2019-05-19T23:36:15.273Z,15.00
2019-05-19T23:41:22.313Z,14.90
2019-05-19T23:46:28.564Z,14.90
2019-05-19T23:51:34.795Z,14.70
2019-05-19T23:56:41.141Z,14.70
